sensor_id;sensor_type;location;lat;lon;timestamp;pressure;altitude;pressure_sealevel;temperature;humidity
64243;BME280;50573;51.512;5.386;2022-10-04T00:04:41;102229.03;;;10.54;100.00
64243;BME280;50573;51.512;5.386;2022-10-04T00:14:47;102219.63;;;10.60;100.00
64243;BME280;50573;51.512;5.386;2022-10-04T00:25:18;102210.16;;;10.59;100.00
64243;BME280;50573;51.512;5.386;2022-10-04T00:35:48;102193.41;;;10.36;100.00
64243;BME280;50573;51.512;5.386;2022-10-04T00:45:53;102193.88;;;10.17;100.00
64243;BME280;50573;51.512;5.386;2022-10-04T00:56:02;102196.31;;;10.09;100.00
64243;BME280;50573;51.512;5.386;2022-10-04T01:06:07;102175.38;;;9.94;100.00
64243;BME280;50573;51.512;5.386;2022-10-04T01:16:17;102159.63;;;9.80;100.00
64243;BME280;50573;51.512;5.386;2022-10-04T01:26:37;102157.66;;;9.68;100.00
64243;BME280;50573;51.512;5.386;2022-10-04T01:36:40;102141.91;;;9.53;100.00
64243;BME280;50573;51.512;5.386;2022-10-04T01:46:46;102143.38;;;9.41;100.00
64243;BME280;50573;51.512;5.386;2022-10-04T01:56:55;102143.44;;;9.44;100.00
64243;BME280;50573;51.512;5.386;2022-10-04T02:07:03;102123.53;;;9.37;100.00
64243;BME280;50573;51.512;5.386;2022-10-04T02:17:12;102105.16;;;9.22;100.00
64243;BME280;50573;51.512;5.386;2022-10-04T02:27:25;102101.50;;;9.10;100.00
64243;BME280;50573;51.512;5.386;2022-10-04T02:37:28;102082.50;;;9.07;100.00
64243;BME280;50573;51.512;5.386;2022-10-04T02:47:39;102070.22;;;8.95;100.00
64243;BME280;50573;51.512;5.386;2022-10-04T02:57:45;102040.00;;;8.88;100.00
64243;BME280;50573;51.512;5.386;2022-10-04T03:07:52;102030.47;;;8.85;100.00
64243;BME280;50573;51.512;5.386;2022-10-04T03:17:55;102027.69;;;8.74;100.00
64243;BME280;50573;51.512;5.386;2022-10-04T03:28:00;102024.06;;;8.65;100.00
64243;BME280;50573;51.512;5.386;2022-10-04T03:38:06;102012.63;;;8.53;100.00
64243;BME280;50573;51.512;5.386;2022-10-04T03:48:13;102001.31;;;8.47;100.00
64243;BME280;50573;51.512;5.386;2022-10-04T03:58:19;101995.03;;;8.35;100.00
64243;BME280;50573;51.512;5.386;2022-10-04T04:08:29;101989.81;;;8.32;100.00
64243;BME280;50573;51.512;5.386;2022-10-04T04:18:36;101999.25;;;8.32;100.00
64243;BME280;50573;51.512;5.386;2022-10-04T04:28:44;101998.22;;;8.23;100.00
64243;BME280;50573;51.512;5.386;2022-10-04T04:38:49;101998.06;;;8.16;100.00
64243;BME280;50573;51.512;5.386;2022-10-04T04:49:14;101979.84;;;8.09;100.00
64243;BME280;50573;51.512;5.386;2022-10-04T04:59:19;101958.28;;;8.04;100.00
64243;BME280;50573;51.512;5.386;2022-10-04T05:09:28;101977.03;;;7.99;100.00
64243;BME280;50573;51.512;5.386;2022-10-04T05:19:34;101976.97;;;7.96;100.00
64243;BME280;50573;51.512;5.386;2022-10-04T05:29:48;101976.94;;;7.94;100.00
64243;BME280;50573;51.512;5.386;2022-10-04T05:40:05;101979.44;;;7.91;100.00
64243;BME280;50573;51.512;5.386;2022-10-04T05:50:16;101975.13;;;7.90;100.00
64243;BME280;50573;51.512;5.386;2022-10-04T06:00:26;101991.38;;;7.89;100.00
64243;BME280;50573;51.512;5.386;2022-10-04T06:10:49;101984.72;;;7.97;100.00
64243;BME280;50573;51.512;5.386;2022-10-04T06:21:04;101993.66;;;8.12;100.00
64243;BME280;50573;51.512;5.386;2022-10-04T06:41:46;101978.00;;;8.42;100.00
64243;BME280;50573;51.512;5.386;2022-10-04T06:52:17;101982.19;;;8.37;100.00
64243;BME280;50573;51.512;5.386;2022-10-04T07:02:28;101988.09;;;8.33;100.00
64243;BME280;50573;51.512;5.386;2022-10-04T07:12:39;101970.13;;;8.36;100.00
64243;BME280;50573;51.512;5.386;2022-10-04T07:22:46;101963.59;;;8.49;100.00
64243;BME280;50573;51.512;5.386;2022-10-04T07:32:55;101974.38;;;8.73;100.00
64243;BME280;50573;51.512;5.386;2022-10-04T07:43:01;101974.94;;;9.01;100.00
64243;BME280;50573;51.512;5.386;2022-10-04T07:53:13;101968.75;;;9.39;100.00
64243;BME280;50573;51.512;5.386;2022-10-04T08:03:29;101953.81;;;9.73;100.00
64243;BME280;50573;51.512;5.386;2022-10-04T08:13:48;101947.56;;;10.16;100.00
64243;BME280;50573;51.512;5.386;2022-10-04T08:24:06;101937.69;;;10.50;100.00
64243;BME280;50573;51.512;5.386;2022-10-04T08:34:30;101939.88;;;10.88;100.00
64243;BME280;50573;51.512;5.386;2022-10-04T08:55:40;101933.53;;;11.48;100.00
64243;BME280;50573;51.512;5.386;2022-10-04T09:05:55;101938.97;;;11.86;100.00
64243;BME280;50573;51.512;5.386;2022-10-04T09:16:07;101949.56;;;12.17;99.90
64243;BME280;50573;51.512;5.386;2022-10-04T09:26:21;101936.75;;;12.46;98.01
64243;BME280;50573;51.512;5.386;2022-10-04T09:47:20;101910.97;;;13.22;93.15
64243;BME280;50573;51.512;5.386;2022-10-04T09:57:44;101917.94;;;13.46;93.67
64243;BME280;50573;51.512;5.386;2022-10-04T10:07:59;101911.00;;;13.65;90.83
64243;BME280;50573;51.512;5.386;2022-10-04T10:18:14;101904.03;;;13.84;88.79
64243;BME280;50573;51.512;5.386;2022-10-04T10:28:53;101882.25;;;14.15;88.62
64243;BME280;50573;51.512;5.386;2022-10-04T10:39:26;101893.41;;;14.41;86.49
64243;BME280;50573;51.512;5.386;2022-10-04T10:49:47;101899.34;;;14.73;84.97
64243;BME280;50573;51.512;5.386;2022-10-04T11:00:27;101903.53;;;14.97;83.70
64243;BME280;50573;51.512;5.386;2022-10-04T11:11:13;101883.50;;;15.12;82.61
64243;BME280;50573;51.512;5.386;2022-10-04T11:43:38;101839.91;;;16.13;76.59
64243;BME280;50573;51.512;5.386;2022-10-04T12:05:14;101824.25;;;16.74;68.85
64243;BME280;50573;51.512;5.386;2022-10-04T12:15:51;101830.78;;;17.04;68.13
64243;BME280;50573;51.512;5.386;2022-10-04T12:26:15;101812.09;;;17.26;69.97
64243;BME280;50573;51.512;5.386;2022-10-04T12:36:34;101808.00;;;17.11;68.00
64243;BME280;50573;51.512;5.386;2022-10-04T12:46:53;101779.41;;;17.03;69.64
64243;BME280;50573;51.512;5.386;2022-10-04T12:57:07;101785.38;;;17.10;66.18
64243;BME280;50573;51.512;5.386;2022-10-04T13:07:56;101771.13;;;17.28;67.70
64243;BME280;50573;51.512;5.386;2022-10-04T13:18:07;101756.81;;;17.47;67.69
64243;BME280;50573;51.512;5.386;2022-10-04T13:28:22;101752.09;;;17.66;66.56
64243;BME280;50573;51.512;5.386;2022-10-04T13:38:49;101751.38;;;17.58;66.55
64243;BME280;50573;51.512;5.386;2022-10-04T13:49:24;101769.19;;;17.81;68.09
64243;BME280;50573;51.512;5.386;2022-10-04T13:59:39;101728.75;;;17.98;66.59
64243;BME280;50573;51.512;5.386;2022-10-04T14:09:57;101706.22;;;17.92;66.60
64243;BME280;50573;51.512;5.386;2022-10-04T14:20:30;101706.78;;;18.06;68.81
64243;BME280;50573;51.512;5.386;2022-10-04T14:31:14;101683.41;;;17.99;68.75
64243;BME280;50573;51.512;5.386;2022-10-04T14:52:40;101660.81;;;17.95;67.46
64243;BME280;50573;51.512;5.386;2022-10-04T15:13:26;101675.03;;;18.20;68.93
64243;BME280;50573;51.512;5.386;2022-10-04T15:23:37;101686.50;;;17.76;68.92
64243;BME280;50573;51.512;5.386;2022-10-04T15:34:18;101690.56;;;17.50;71.80
64243;BME280;50573;51.512;5.386;2022-10-04T15:44:47;101693.72;;;17.22;72.98
64243;BME280;50573;51.512;5.386;2022-10-04T15:55:46;101673.28;;;16.97;74.56
64243;BME280;50573;51.512;5.386;2022-10-04T16:05:58;101676.22;;;16.79;75.27
64243;BME280;50573;51.512;5.386;2022-10-04T16:27:13;101680.38;;;16.39;77.68
64243;BME280;50573;51.512;5.386;2022-10-04T16:37:27;101698.97;;;16.18;79.42
64243;BME280;50573;51.512;5.386;2022-10-04T16:47:34;101715.13;;;15.82;81.28
64243;BME280;50573;51.512;5.386;2022-10-04T16:57:41;101715.59;;;15.43;83.37
64243;BME280;50573;51.512;5.386;2022-10-04T17:18:27;101733.66;;;14.73;87.56
64243;BME280;50573;51.512;5.386;2022-10-04T17:28:34;101730.41;;;14.42;88.32
64243;BME280;50573;51.512;5.386;2022-10-04T17:38:50;101742.66;;;14.28;90.55
64243;BME280;50573;51.512;5.386;2022-10-04T17:48:58;101747.81;;;14.34;91.78
64243;BME280;50573;51.512;5.386;2022-10-04T17:59:25;101767.66;;;14.47;91.70
64243;BME280;50573;51.512;5.386;2022-10-04T18:09:34;101745.97;;;14.51;91.67
64243;BME280;50573;51.512;5.386;2022-10-04T18:19:54;101723.53;;;14.35;91.35
64243;BME280;50573;51.512;5.386;2022-10-04T18:30:10;101699.44;;;14.10;92.21
64243;BME280;50573;51.512;5.386;2022-10-04T18:40:18;101704.75;;;13.90;92.76
64243;BME280;50573;51.512;5.386;2022-10-04T18:50:29;101709.16;;;13.70;93.56
64243;BME280;50573;51.512;5.386;2022-10-04T19:00:38;101710.06;;;13.60;94.27
64243;BME280;50573;51.512;5.386;2022-10-04T19:11:04;101716.97;;;13.69;94.13
64243;BME280;50573;51.512;5.386;2022-10-04T19:21:19;101726.44;;;13.82;93.55
64243;BME280;50573;51.512;5.386;2022-10-04T19:31:29;101719.47;;;13.91;93.12
64243;BME280;50573;51.512;5.386;2022-10-04T19:41:47;101695.22;;;13.93;93.00
64243;BME280;50573;51.512;5.386;2022-10-04T19:52:09;101696.03;;;13.98;92.85
64243;BME280;50573;51.512;5.386;2022-10-04T20:02:16;101694.28;;;14.05;93.16
64243;BME280;50573;51.512;5.386;2022-10-04T20:12:34;101699.44;;;14.08;93.02
64243;BME280;50573;51.512;5.386;2022-10-04T20:22:55;101691.63;;;14.11;93.31
64243;BME280;50573;51.512;5.386;2022-10-04T20:32:58;101681.22;;;14.13;92.92
64243;BME280;50573;51.512;5.386;2022-10-04T20:43:25;101685.53;;;14.15;92.61
64243;BME280;50573;51.512;5.386;2022-10-04T20:53:31;101673.44;;;14.10;93.24
64243;BME280;50573;51.512;5.386;2022-10-04T21:03:36;101676.91;;;14.10;92.92
64243;BME280;50573;51.512;5.386;2022-10-04T21:13:50;101683.88;;;14.05;93.54
64243;BME280;50573;51.512;5.386;2022-10-04T21:23:55;101685.56;;;14.08;93.08
64243;BME280;50573;51.512;5.386;2022-10-04T21:33:58;101676.06;;;14.07;93.64
64243;BME280;50573;51.512;5.386;2022-10-04T21:44:02;101689.91;;;14.09;94.14
64243;BME280;50573;51.512;5.386;2022-10-04T21:54:06;101693.34;;;14.09;94.11
64243;BME280;50573;51.512;5.386;2022-10-04T22:04:10;101693.38;;;14.08;94.59
64243;BME280;50573;51.512;5.386;2022-10-04T22:14:13;101687.28;;;14.10;94.75
64243;BME280;50573;51.512;5.386;2022-10-04T22:24:19;101687.31;;;14.07;95.53
64243;BME280;50573;51.512;5.386;2022-10-04T22:34:22;101701.19;;;14.04;95.88
64243;BME280;50573;51.512;5.386;2022-10-04T22:44:28;101665.72;;;14.02;96.44
64243;BME280;50573;51.512;5.386;2022-10-04T22:54:34;101656.16;;;14.01;96.75
64243;BME280;50573;51.512;5.386;2022-10-04T23:04:40;101641.44;;;14.00;96.33
64243;BME280;50573;51.512;5.386;2022-10-04T23:14:45;101642.31;;;13.97;97.30
64243;BME280;50573;51.512;5.386;2022-10-04T23:24:50;101626.81;;;13.86;98.52
64243;BME280;50573;51.512;5.386;2022-10-04T23:34:53;101628.59;;;13.81;99.55
64243;BME280;50573;51.512;5.386;2022-10-04T23:44:59;101623.41;;;13.74;99.84
64243;BME280;50573;51.512;5.386;2022-10-04T23:55:10;101622.59;;;13.70;100.00
